createdAt,value
2019-05-15T00:00:52.137Z,100741.40
2019-05-15T00:03:23.178Z,100741.40
2019-05-15T00:05:54.273Z,100750.75
2019-05-15T00:08:25.399Z,100750.75
2019-05-15T00:10:58.656Z,100756.63
2019-05-15T00:13:29.551Z,100753.34
2019-05-15T00:16:00.823Z,100753.69
2019-05-15T00:18:31.997Z,100753.47
2019-05-15T00:21:03.169Z,100746.56
2019-05-15T00:23:34.317Z,100751.95
2019-05-15T00:26:05.514Z,100751.95
2019-05-15T00:28:38.739Z,100753.55
2019-05-15T00:31:09.506Z,100753.55
2019-05-15T00:33:40.694Z,100734.67
2019-05-15T00:36:11.997Z,100755.69
2019-05-15T00:38:43.318Z,100755.63
2019-05-15T00:41:14.510Z,100752.81
2019-05-15T00:43:45.616Z,100765.77
2019-05-15T00:46:18.356Z,100769.94
2019-05-15T00:48:50.772Z,100769.94
2019-05-15T00:51:22.035Z,100734.56
2019-05-15T00:53:53.129Z,100760.90
2019-05-15T00:56:24.378Z,100766.41
2019-05-15T00:58:55.430Z,100765.23
2019-05-15T01:01:28.666Z,100765.23
2019-05-15T01:03:59.421Z,100769.86
2019-05-15T01:06:30.625Z,100769.86
2019-05-15T01:09:01.753Z,100749.73
2019-05-15T01:11:34.752Z,100749.73
2019-05-15T01:14:05.889Z,100760.36
2019-05-15T01:16:38.303Z,100766.92
2019-05-15T01:19:09.591Z,100766.08
2019-05-15T01:21:40.837Z,100772.26
2019-05-15T01:24:12.129Z,100776.66
2019-05-15T01:26:43.222Z,100778.92
2019-05-15T01:29:14.329Z,100778.92
2019-05-15T01:31:45.398Z,100774.00
2019-05-15T01:34:18.479Z,100781.76
2019-05-15T01:36:49.316Z,100780.80
2019-05-15T01:39:20.528Z,100782.77
2019-05-15T01:41:51.705Z,100776.72
2019-05-15T01:44:22.766Z,100783.14
2019-05-15T01:46:53.905Z,100779.63
2019-05-15T01:49:25.104Z,100781.56
2019-05-15T01:51:58.482Z,100777.81
2019-05-15T01:54:29.109Z,100782.81
2019-05-15T01:57:00.296Z,100783.65
2019-05-15T01:59:31.332Z,100791.92
2019-05-15T02:02:02.387Z,100784.23
2019-05-15T02:04:33.569Z,100783.06
2019-05-15T02:07:04.610Z,100785.72
2019-05-15T02:09:35.857Z,100787.43
2019-05-15T02:12:08.728Z,100791.16
2019-05-15T02:14:41.471Z,100791.80
2019-05-15T02:17:12.674Z,100796.82
2019-05-15T02:19:43.850Z,100790.96
2019-05-15T02:22:15.104Z,100790.33
2019-05-15T02:24:48.176Z,100793.72
2019-05-15T02:27:19.072Z,100788.70
2019-05-15T02:29:50.108Z,100792.47
2019-05-15T02:32:21.298Z,100784.47
2019-05-15T02:34:52.415Z,100788.23
2019-05-15T02:37:23.511Z,100787.42
2019-05-15T02:39:54.675Z,100797.48
2019-05-15T02:42:28.720Z,100793.00
2019-05-15T02:44:58.756Z,100797.48
2019-05-15T02:47:30.027Z,100791.14
2019-05-15T02:50:01.121Z,100789.89
2019-05-15T02:52:33.275Z,100791.98
2019-05-15T02:55:08.958Z,100798.66
2019-05-15T02:57:39.561Z,100798.20
2019-05-15T03:00:30.277Z,100787.91
2019-05-15T03:02:44.732Z,100790.45
2019-05-15T03:05:15.834Z,100792.23
2019-05-15T03:07:49.276Z,100790.38
2019-05-15T03:10:20.162Z,100790.61
2019-05-15T03:12:52.240Z,100796.03
2019-05-15T03:15:23.275Z,100793.60
2019-05-15T03:17:54.304Z,100790.45
2019-05-15T03:20:25.499Z,100793.66
2019-05-15T03:22:59.515Z,100786.72
2019-05-15T03:25:29.838Z,100780.97
2019-05-15T03:28:01.143Z,100784.72
2019-05-15T03:30:51.011Z,100784.45
2019-05-15T03:33:11.548Z,100786.23
2019-05-15T03:35:42.739Z,100788.41
2019-05-15T03:38:10.820Z,100784.36
2019-05-15T03:40:42.082Z,100788.34
2019-05-15T03:43:13.204Z,100786.73
2019-05-15T03:45:44.382Z,100781.27
2019-05-15T03:48:15.566Z,100778.22
2019-05-15T03:50:48.841Z,100783.11
2019-05-15T03:53:19.608Z,100787.73
2019-05-15T03:55:50.875Z,100785.59
2019-05-15T03:58:22.110Z,100782.86
2019-05-15T04:00:53.262Z,100791.23
2019-05-15T04:03:24.396Z,100788.91
2019-05-15T04:05:55.727Z,100781.42
2019-05-15T04:08:29.766Z,100785.24
2019-05-15T04:10:59.955Z,100791.67
2019-05-15T04:13:31.059Z,100785.77
2019-05-15T04:16:02.240Z,100792.97
2019-05-15T04:18:33.518Z,100784.00
2019-05-15T04:21:04.823Z,100788.41
2019-05-15T04:23:38.801Z,100788.99
2019-05-15T04:26:09.436Z,100784.42
2019-05-15T04:28:42.010Z,100793.28
2019-05-15T04:31:13.537Z,100797.78
2019-05-15T04:33:44.663Z,100807.98
2019-05-15T04:36:18.907Z,100812.31
2019-05-15T04:38:50.367Z,100813.56
2019-05-15T04:41:21.557Z,100814.71
2019-05-15T04:43:52.722Z,100808.77
2019-05-15T04:46:23.880Z,100812.80
2019-05-15T04:48:54.986Z,100808.73
2019-05-15T04:51:30.151Z,100820.25
2019-05-15T04:53:59.030Z,100820.44
2019-05-15T04:56:30.242Z,100816.98
2019-05-15T04:59:01.622Z,100821.00
2019-05-15T05:01:32.782Z,100826.25
2019-05-15T05:04:04.979Z,100824.06
2019-05-15T05:06:38.718Z,100835.14
2019-05-15T05:09:09.501Z,100835.14
2019-05-15T05:11:40.621Z,100839.36
2019-05-15T05:14:11.740Z,100839.55
2019-05-15T05:16:42.950Z,100845.70
2019-05-15T05:19:14.067Z,100845.70
2019-05-15T05:21:45.125Z,100850.08
2019-05-15T05:24:18.425Z,100851.25
2019-05-15T05:26:49.352Z,100851.61
2019-05-15T05:29:20.537Z,100852.40
2019-05-15T05:31:51.671Z,100855.77
2019-05-15T05:34:22.898Z,100854.69
2019-05-15T05:36:58.845Z,100860.25
2019-05-15T05:39:29.474Z,100861.42
2019-05-15T05:42:00.725Z,100857.41
2019-05-15T05:44:31.985Z,100856.25
2019-05-15T05:47:03.207Z,100856.66
2019-05-15T05:49:34.518Z,100854.94
2019-05-15T05:52:08.256Z,100855.11
2019-05-15T05:54:38.591Z,100854.53
2019-05-15T05:57:09.741Z,100854.30
2019-05-15T05:59:40.802Z,100848.94
2019-05-15T06:02:11.860Z,100846.44
2019-05-15T06:04:44.230Z,100852.56
2019-05-15T06:07:15.432Z,100850.66
2019-05-15T06:09:48.547Z,100851.02
2019-05-15T06:12:19.558Z,100854.91
2019-05-15T06:14:50.775Z,100853.24
2019-05-15T06:17:21.926Z,100852.96
2019-05-15T06:19:53.104Z,100854.48
2019-05-15T06:22:24.289Z,100858.19
2019-05-15T06:24:57.935Z,100853.16
2019-05-15T06:27:29.151Z,100856.52
2019-05-15T06:30:00.302Z,100861.50
2019-05-15T06:32:31.521Z,100856.63
2019-05-15T06:35:05.120Z,100858.33
2019-05-15T06:37:36.318Z,100864.36
2019-05-15T06:40:08.440Z,100859.38
2019-05-15T06:42:39.903Z,100863.86
2019-05-15T06:45:11.132Z,100861.80
2019-05-15T06:47:42.334Z,100852.57
2019-05-15T06:50:13.773Z,100858.64
2019-05-15T06:52:44.665Z,100852.57
2019-05-15T06:55:18.189Z,100855.28
2019-05-15T06:57:48.642Z,100858.82
2019-05-15T07:00:19.799Z,100855.11
2019-05-15T07:02:50.996Z,100854.58
2019-05-15T07:05:22.137Z,100856.44
2019-05-15T07:07:53.384Z,100856.52
2019-05-15T07:10:24.532Z,100851.87
2019-05-15T07:12:55.851Z,100851.77
2019-05-15T07:15:27.927Z,100855.22
2019-05-15T07:17:59.265Z,100857.11
2019-05-15T07:20:30.481Z,100854.13
2019-05-15T07:23:01.634Z,100852.81
2019-05-15T07:25:32.940Z,100860.30
2019-05-15T07:28:04.304Z,100856.63
2019-05-15T07:30:35.367Z,100852.52
2019-05-15T07:33:08.704Z,100851.21
2019-05-15T07:35:39.381Z,100849.47
2019-05-15T07:38:10.540Z,100841.84
2019-05-15T07:40:42.861Z,100848.95
2019-05-15T07:43:14.051Z,100857.64
2019-05-15T07:45:52.408Z,100855.90
2019-05-15T07:48:18.887Z,100861.80
2019-05-15T07:50:50.364Z,100852.22
2019-05-15T07:53:21.559Z,100851.05
2019-05-15T07:55:52.950Z,100849.47
2019-05-15T07:58:24.112Z,100851.33
2019-05-15T08:00:55.308Z,100848.99
2019-05-15T08:03:29.047Z,100856.08
2019-05-15T08:06:03.101Z,100855.69
2019-05-15T08:08:33.654Z,100855.98
2019-05-15T08:11:19.578Z,100858.47
2019-05-15T08:13:39.200Z,100850.81
2019-05-15T08:16:11.015Z,100856.03
2019-05-15T08:18:42.539Z,100850.83
2019-05-15T08:21:14.917Z,100848.58
2019-05-15T08:23:48.233Z,100842.19
2019-05-15T08:26:19.922Z,100845.62
2019-05-15T08:28:51.561Z,100845.78
2019-05-15T08:31:22.880Z,100846.80
2019-05-15T08:33:54.388Z,100836.80
2019-05-15T08:36:31.654Z,100845.39
2019-05-15T08:39:12.693Z,100848.36
2019-05-15T08:41:52.227Z,100845.66
2019-05-15T08:44:24.572Z,100851.94
2019-05-15T08:46:59.048Z,100849.70
2019-05-15T08:49:32.783Z,100853.05
2019-05-15T08:52:09.535Z,100855.89
2019-05-15T08:54:38.685Z,100851.09
2019-05-15T08:57:12.446Z,100858.22
2019-05-15T08:59:44.287Z,100862.02
2019-05-15T09:02:15.449Z,100860.89
2019-05-15T09:04:48.698Z,100854.97
2019-05-15T09:07:19.610Z,100849.44
2019-05-15T09:09:50.944Z,100845.23
2019-05-15T09:12:22.229Z,100847.17
2019-05-15T09:14:53.543Z,100842.75
2019-05-15T09:17:24.754Z,100843.70
2019-05-15T09:19:56.762Z,100843.00
2019-05-15T09:22:29.281Z,100845.33
2019-05-15T09:25:01.651Z,100845.93
2019-05-15T09:27:40.375Z,100847.89
2019-05-15T09:30:11.789Z,100847.52
2019-05-15T09:32:43.093Z,100845.45
2019-05-15T09:35:18.692Z,100841.02
2019-05-15T09:37:53.875Z,100838.32
2019-05-15T09:40:42.253Z,100841.02
2019-05-15T09:43:00.918Z,100845.82
2019-05-15T09:45:32.118Z,100843.77
2019-05-15T09:48:03.296Z,100843.66
2019-05-15T09:50:34.509Z,100852.38
2019-05-15T09:53:05.667Z,100843.44
2019-05-15T09:55:38.164Z,100840.36
2019-05-15T09:58:10.164Z,100848.24
2019-05-15T10:00:42.520Z,100850.34
2019-05-15T10:03:13.865Z,100859.60
2019-05-15T10:05:48.110Z,100851.23
2019-05-15T10:08:21.381Z,100856.52
2019-05-15T10:10:52.825Z,100849.40
2019-05-15T10:13:24.062Z,100848.99
2019-05-15T10:15:55.388Z,100852.66
2019-05-15T10:18:28.226Z,100846.95
2019-05-15T10:20:59.817Z,100847.78
2019-05-15T10:23:31.057Z,100847.89
2019-05-15T10:26:02.352Z,100852.92
2019-05-15T10:28:33.729Z,100845.82
2019-05-15T10:31:04.897Z,100847.89
2019-05-15T10:33:36.168Z,100843.97
2019-05-15T10:36:08.352Z,100850.23
2019-05-15T10:38:39.767Z,100842.97
2019-05-15T10:41:14.948Z,100851.44
2019-05-15T10:43:46.726Z,100841.17
2019-05-15T10:46:19.066Z,100844.64
2019-05-15T10:48:49.769Z,100844.56
2019-05-15T10:51:20.922Z,100844.61
2019-05-15T10:53:51.973Z,100837.34
2019-05-15T10:56:23.049Z,100839.92
2019-05-15T10:58:54.278Z,100829.13
2019-05-15T11:01:25.522Z,100831.71
2019-05-15T11:03:58.921Z,100830.24
2019-05-15T11:06:30.686Z,100836.35
2019-05-15T11:09:01.796Z,100842.49
2019-05-15T11:11:34.691Z,100836.72
2019-05-15T11:14:08.842Z,100844.11
2019-05-15T11:16:39.300Z,100836.23
2019-05-15T11:19:10.530Z,100839.16
2019-05-15T11:21:43.541Z,100834.48
2019-05-15T11:24:15.568Z,100837.51
2019-05-15T11:26:49.928Z,100835.39
2019-05-15T11:29:19.516Z,100830.71
2019-05-15T11:31:50.759Z,100830.58
2019-05-15T11:34:21.995Z,100829.60
2019-05-15T11:36:54.761Z,100831.67
2019-05-15T11:39:28.639Z,100834.39
2019-05-15T11:41:58.860Z,100829.59
2019-05-15T11:44:30.676Z,100832.09
2019-05-15T11:47:01.887Z,100832.59
2019-05-15T11:49:32.882Z,100826.70
2019-05-15T11:52:04.060Z,100824.52
2019-05-15T11:54:35.173Z,100823.06
2019-05-15T11:57:08.626Z,100817.66
2019-05-15T11:59:44.639Z,100822.42
2019-05-15T12:02:12.281Z,100818.63
2019-05-15T12:04:43.350Z,100819.61
2019-05-15T12:07:14.598Z,100812.63
2019-05-15T12:09:45.703Z,100817.47
2019-05-15T12:12:18.047Z,100812.08
2019-05-15T12:14:50.973Z,100800.14
2019-05-15T12:17:22.217Z,100797.68
2019-05-15T12:19:56.769Z,100802.13
2019-05-15T12:22:28.770Z,100801.98
2019-05-15T12:25:00.553Z,100801.98
2019-05-15T12:27:32.362Z,100805.55
2019-05-15T12:30:04.848Z,100807.38
2019-05-15T12:32:39.388Z,100806.03
2019-05-15T12:35:10.164Z,100800.02
2019-05-15T12:37:41.508Z,100805.42
2019-05-15T13:00:39.142Z,100787.59
2019-05-15T13:03:10.483Z,100793.37
2019-05-15T13:05:41.714Z,100785.39
2019-05-15T13:08:12.934Z,100783.70
2019-05-15T13:10:44.125Z,100784.30
2019-05-15T13:13:15.361Z,100790.19
2019-05-15T13:15:48.283Z,100784.94
2019-05-15T13:18:20.984Z,100795.11
2019-05-15T13:20:51.934Z,100788.02
2019-05-15T13:23:23.195Z,100795.59
2019-05-15T13:25:54.448Z,100796.21
2019-05-15T13:28:25.630Z,100789.20
2019-05-15T13:31:00.073Z,100793.37
2019-05-15T13:33:38.431Z,100800.72
2019-05-15T13:36:09.182Z,100804.53
2019-05-15T13:38:40.331Z,100796.53
2019-05-15T13:41:11.568Z,100792.59
2019-05-15T13:43:42.807Z,100789.66
2019-05-15T13:46:14.036Z,100789.13
2019-05-15T13:48:45.463Z,100783.11
2019-05-15T13:51:18.202Z,100786.64
2019-05-15T13:53:49.657Z,100789.47
2019-05-15T13:56:20.765Z,100783.69
2019-05-15T13:58:51.941Z,100789.09
2019-05-15T14:01:23.157Z,100782.61
2019-05-15T14:03:54.489Z,100782.87
2019-05-15T14:06:28.420Z,100793.70
2019-05-15T14:09:01.520Z,100793.48
2019-05-15T14:11:39.011Z,100794.09
2019-05-15T14:14:10.819Z,100796.08
2019-05-15T14:16:41.998Z,100789.67
2019-05-15T14:19:13.260Z,100790.55
2019-05-15T14:21:44.692Z,100793.11
2019-05-15T14:24:18.396Z,100787.71
2019-05-15T14:26:51.611Z,100792.61
2019-05-15T14:29:23.165Z,100789.44
2019-05-15T14:31:54.559Z,100794.34
2019-05-15T14:34:26.176Z,100792.61
2019-05-15T14:36:59.180Z,100791.12
2019-05-15T14:39:30.775Z,100790.04
2019-05-15T14:42:04.609Z,100782.80
2019-05-15T14:44:42.090Z,100788.47
2019-05-15T14:47:20.055Z,100785.63
2019-05-15T14:50:05.210Z,100780.63
2019-05-15T14:52:38.471Z,100786.16
2019-05-15T14:55:09.370Z,100780.52
2019-05-15T14:57:40.501Z,100778.05
2019-05-15T15:00:11.899Z,100776.58
2019-05-15T15:02:43.045Z,100774.24
2019-05-15T15:05:14.292Z,100779.16
2019-05-15T15:07:45.408Z,100768.59
2019-05-15T15:10:19.704Z,100771.29
2019-05-15T15:12:51.537Z,100772.27
2019-05-15T15:15:23.053Z,100775.94
2019-05-15T15:17:54.473Z,100777.53
2019-05-15T15:20:25.954Z,100772.91
2019-05-15T15:22:58.812Z,100772.39
2019-05-15T15:25:30.316Z,100769.94
2019-05-15T15:28:04.614Z,100773.05
2019-05-15T15:30:37.820Z,100776.46
2019-05-15T15:33:09.984Z,100775.61
2019-05-15T15:35:41.195Z,100773.76
2019-05-15T15:38:13.533Z,100765.66
2019-05-15T15:40:48.160Z,100773.25
2019-05-15T15:43:19.010Z,100770.08
2019-05-15T15:45:50.595Z,100774.51
2019-05-15T15:48:21.892Z,100779.53
2019-05-15T15:50:53.415Z,100779.91
2019-05-15T15:53:24.692Z,100776.70
2019-05-15T15:55:55.719Z,100767.14
2019-05-15T15:58:28.900Z,100770.54
2019-05-15T16:01:00.115Z,100762.45
2019-05-15T16:03:31.233Z,100767.27
2019-05-15T16:06:02.500Z,100768.63
2019-05-15T16:08:33.661Z,100759.64
2019-05-15T16:11:05.199Z,100764.33
2019-05-15T16:13:38.592Z,100766.66
2019-05-15T16:16:10.010Z,100769.95
2019-05-15T16:18:41.581Z,100764.69
2019-05-15T16:21:13.989Z,100762.37
2019-05-15T16:23:45.194Z,100758.09
2019-05-15T16:26:19.323Z,100756.64
2019-05-15T16:28:49.294Z,100760.08
2019-05-15T16:31:21.278Z,100756.80
2019-05-15T16:33:52.347Z,100758.84
2019-05-15T16:36:23.564Z,100759.31
2019-05-15T16:39:05.312Z,100764.45
2019-05-15T16:41:29.055Z,100761.39
2019-05-15T16:44:00.305Z,100766.44
2019-05-15T16:46:31.594Z,100763.83
2019-05-15T16:49:02.813Z,100766.64
2019-05-15T16:51:33.988Z,100761.12
2019-05-15T16:54:05.239Z,100770.05
2019-05-15T16:56:39.481Z,100762.92
2019-05-15T16:59:09.239Z,100766.58
2019-05-15T17:01:40.855Z,100773.19
2019-05-15T17:04:12.041Z,100765.55
2019-05-15T17:06:43.330Z,100767.77
2019-05-15T17:09:21.251Z,100769.95
2019-05-15T17:11:49.155Z,100763.20
2019-05-15T17:14:20.326Z,100761.84
2019-05-15T17:16:52.168Z,100767.55
2019-05-15T17:19:23.406Z,100767.91
2019-05-15T17:21:54.493Z,100765.66
2019-05-15T17:24:25.662Z,100763.45
2019-05-15T17:26:59.633Z,100770.97
2019-05-15T17:29:31.170Z,100770.95
2019-05-15T17:32:02.410Z,100766.39
2019-05-15T17:34:34.442Z,100768.20
2019-05-15T17:37:05.785Z,100770.88
2019-05-15T17:39:41.462Z,100775.73
2019-05-15T17:42:11.022Z,100775.58
2019-05-15T17:44:43.780Z,100783.36
2019-05-15T17:47:16.512Z,100785.17
2019-05-15T17:49:48.185Z,100781.17
2019-05-15T17:52:19.548Z,100783.37
2019-05-15T17:54:50.838Z,100784.56
2019-05-15T17:57:22.009Z,100789.09
2019-05-15T17:59:53.286Z,100792.71
2019-05-15T18:02:24.514Z,100800.27
2019-05-15T18:04:55.815Z,100804.73
2019-05-15T18:07:28.167Z,100800.15
2019-05-15T18:09:59.468Z,100798.64
2019-05-15T18:12:30.629Z,100800.05
2019-05-15T18:15:02.135Z,100800.50
2019-05-15T18:17:33.869Z,100803.03
2019-05-15T18:20:05.792Z,100802.64
2019-05-15T18:22:37.972Z,100802.09
2019-05-15T18:25:09.375Z,100800.02
2019-05-15T18:27:40.634Z,100794.47
2019-05-15T18:30:11.995Z,100793.81
2019-05-15T18:32:43.098Z,100794.88
2019-05-15T18:35:14.461Z,100797.75
2019-05-15T18:37:48.147Z,100798.09
2019-05-15T18:40:19.033Z,100800.96
2019-05-15T18:42:50.413Z,100803.97
2019-05-15T18:45:21.635Z,100811.48
2019-05-15T18:47:52.820Z,100807.50
2019-05-15T18:50:24.064Z,100810.61
2019-05-15T18:52:55.235Z,100804.69
2019-05-15T18:55:26.469Z,100810.73
2019-05-15T18:57:58.445Z,100812.01
2019-05-15T19:00:29.938Z,100810.48
2019-05-15T19:03:01.522Z,100813.77
2019-05-15T19:05:32.779Z,100807.25
2019-05-15T19:08:04.061Z,100808.80
2019-05-15T19:10:35.193Z,100811.31
2019-05-15T19:13:08.552Z,100809.44
2019-05-15T19:15:39.321Z,100805.77
2019-05-15T19:18:10.590Z,100803.50
2019-05-15T19:20:41.711Z,100805.02
2019-05-15T19:23:14.624Z,100808.30
2019-05-15T19:25:45.757Z,100804.20
2019-05-15T19:28:18.890Z,100810.41
2019-05-15T19:30:49.727Z,100811.97
2019-05-15T19:33:33.428Z,100810.16
2019-05-15T19:35:53.930Z,100810.47
2019-05-15T19:38:25.045Z,100808.66
2019-05-15T19:41:02.322Z,100810.09
2019-05-15T19:43:29.296Z,100805.30
2019-05-15T19:46:00.498Z,100803.56
2019-05-15T19:48:31.810Z,100800.52
2019-05-15T19:51:04.007Z,100797.45
2019-05-15T19:53:35.234Z,100796.01
2019-05-15T19:56:08.036Z,100800.98
2019-05-15T19:58:39.282Z,100804.16
2019-05-15T20:01:10.418Z,100800.98
2019-05-15T20:03:49.647Z,100801.09
2019-05-15T20:06:14.567Z,100797.27
2019-05-15T20:08:47.808Z,100790.77
2019-05-15T20:11:18.625Z,100801.70
2019-05-15T20:13:49.943Z,100800.53
2019-05-15T20:16:21.496Z,100796.71
2019-05-15T20:18:54.054Z,100799.11
2019-05-15T20:21:25.391Z,100801.50
2019-05-15T20:23:57.972Z,100808.51
2019-05-15T20:26:29.344Z,100809.63
2019-05-15T20:29:00.530Z,100806.66
2019-05-15T20:31:31.667Z,100799.66
2019-05-15T20:34:06.023Z,100803.03
2019-05-15T20:36:38.339Z,100803.69
2019-05-15T20:39:08.796Z,100804.54
2019-05-15T20:41:40.119Z,100799.37
2019-05-15T20:44:11.270Z,100799.78
2019-05-15T20:46:42.375Z,100794.22
2019-05-15T20:49:13.641Z,100800.24
2019-05-15T20:51:44.717Z,100793.25
2019-05-15T20:54:15.816Z,100798.61
2019-05-15T20:56:48.965Z,100795.53
2019-05-15T20:59:20.621Z,100791.52
2019-05-15T21:01:51.689Z,100795.18
2019-05-15T21:04:25.252Z,100792.50
2019-05-15T21:06:55.749Z,100793.45
2019-05-15T21:09:30.214Z,100794.59
2019-05-15T21:11:59.838Z,100792.31
2019-05-15T21:14:31.020Z,100797.73
2019-05-15T21:17:02.226Z,100791.91
2019-05-15T21:19:33.473Z,100795.73
2019-05-15T21:22:04.731Z,100798.58
2019-05-15T21:24:37.804Z,100797.03
2019-05-15T21:27:08.812Z,100791.68
2019-05-15T21:29:40.534Z,100794.16
2019-05-15T21:32:11.804Z,100795.50
2019-05-15T21:34:44.434Z,100797.23
2019-05-15T21:37:15.819Z,100799.16
2019-05-15T21:39:48.531Z,100801.05
2019-05-15T21:42:19.800Z,100797.64
2019-05-15T21:44:52.128Z,100795.06
2019-05-15T21:47:23.213Z,100795.46
2019-05-15T21:49:54.935Z,100800.06
2019-05-15T21:52:26.181Z,100801.11
2019-05-15T21:54:59.417Z,100794.50
2019-05-15T21:57:36.385Z,100798.67
2019-05-15T22:00:03.490Z,100805.27
2019-05-15T22:02:38.339Z,100795.14
2019-05-15T22:05:09.225Z,100797.52
2019-05-15T22:07:40.412Z,100799.41
2019-05-15T22:10:11.670Z,100792.45
2019-05-15T22:12:43.018Z,100792.06
2019-05-15T22:15:14.238Z,100788.89
2019-05-15T22:17:49.028Z,100784.88
2019-05-15T22:20:18.964Z,100773.41
2019-05-15T22:22:50.837Z,100779.71
2019-05-15T22:25:22.296Z,100778.47
2019-05-15T22:27:53.578Z,100777.98
2019-05-15T22:30:25.125Z,100779.32
2019-05-15T22:32:58.491Z,100778.92
2019-05-15T22:35:29.736Z,100781.60
2019-05-15T22:38:01.069Z,100785.25
2019-05-15T22:40:32.414Z,100786.95
2019-05-15T22:43:03.568Z,100784.28
2019-05-15T22:45:34.893Z,100785.25
2019-05-15T22:48:06.247Z,100784.38
2019-05-15T22:50:38.435Z,100785.70
2019-05-15T22:53:09.829Z,100777.23
2019-05-15T22:55:41.217Z,100778.56
2019-05-15T22:58:12.973Z,100783.52
2019-05-15T23:00:44.250Z,100789.82
2019-05-15T23:03:15.590Z,100790.31
2019-05-15T23:05:46.928Z,100791.73
2019-05-15T23:08:18.530Z,100795.36
2019-05-15T23:10:49.857Z,100795.45
2019-05-15T23:13:21.127Z,100798.98
2019-05-15T23:15:52.276Z,100796.89
2019-05-15T23:18:23.514Z,100794.76
2019-05-15T23:20:54.901Z,100808.72
2019-05-15T23:23:26.149Z,100804.90
2019-05-15T23:25:57.866Z,100803.16
2019-05-15T23:28:29.233Z,100799.70
2019-05-15T23:31:01.524Z,100806.03
2019-05-15T23:33:32.725Z,100796.72
2019-05-15T23:36:04.986Z,100799.88
2019-05-15T23:38:38.336Z,100801.80
2019-05-15T23:41:09.426Z,100795.84
2019-05-15T23:43:40.537Z,100792.02
2019-05-15T23:46:11.835Z,100790.47
2019-05-15T23:48:43.162Z,100785.58
2019-05-15T23:51:14.281Z,100792.75
2019-05-15T23:53:45.481Z,100791.11
2019-05-15T23:56:18.903Z,100787.95
2019-05-15T23:58:49.781Z,100789.77
